createdAt,value
2022-11-06T00:13:09.253Z,0
2022-11-06T00:28:11.562Z,0
2022-11-06T00:43:13.599Z,2.2
2022-11-06T00:58:15.803Z,2.2
2022-11-06T01:13:17.903Z,2.2
2022-11-06T01:28:19.778Z,2.2
2022-11-06T01:43:21.667Z,2.2
2022-11-06T01:58:23.682Z,2.2
2022-11-06T02:13:25.724Z,2.2
2022-11-06T02:28:27.639Z,2.2
2022-11-06T02:43:29.515Z,0
2022-11-06T02:58:31.551Z,0
2022-11-06T03:13:33.472Z,0
2022-11-06T03:28:35.391Z,0
2022-11-06T03:43:37.367Z,0
2022-11-06T03:58:39.330Z,0
2022-11-06T04:13:41.264Z,0
2022-11-06T04:28:43.200Z,0
2022-11-06T04:43:45.141Z,0
2022-11-06T04:58:47.070Z,0
2022-11-06T05:13:48.969Z,0
2022-11-06T05:28:51.019Z,0
2022-11-06T05:43:52.927Z,0
2022-11-06T05:58:54.934Z,0
2022-11-06T06:13:56.856Z,0
2022-11-06T06:28:58.854Z,0
2022-11-06T06:44:00.823Z,0
2022-11-06T06:59:02.784Z,0
2022-11-06T07:14:04.685Z,0
2022-11-06T07:29:06.718Z,0
2022-11-06T07:44:08.648Z,0
2022-11-06T07:59:10.579Z,0
2022-11-06T08:14:12.551Z,0
2022-11-06T08:29:14.489Z,0
2022-11-06T08:44:16.415Z,0
2022-11-06T08:59:18.339Z,0
2022-11-06T09:14:20.255Z,0
2022-11-06T09:29:22.227Z,0
2022-11-06T09:44:24.114Z,0
2022-11-06T09:59:26.135Z,0
2022-11-06T10:14:28.055Z,0
2022-11-06T10:29:30.088Z,0
2022-11-06T10:44:32.066Z,0
2022-11-06T10:59:33.994Z,0
2022-11-06T11:14:35.877Z,0
2022-11-06T11:29:37.849Z,0
2022-11-06T11:44:39.830Z,0
2022-11-06T11:59:41.770Z,0
2022-11-06T12:14:43.660Z,0
2022-11-06T12:29:45.583Z,0
2022-11-06T12:44:47.645Z,0
2022-11-06T12:59:49.548Z,0
2022-11-06T13:14:51.496Z,0
2022-11-06T13:29:53.438Z,0
2022-11-06T13:44:55.399Z,0
2022-11-06T13:59:57.310Z,0
2022-11-06T14:14:59.272Z,0
2022-11-06T14:30:01.370Z,0
2022-11-06T14:45:03.377Z,2.2
2022-11-06T15:00:05.278Z,4.4
2022-11-06T15:15:07.268Z,6.6
2022-11-06T15:30:09.107Z,11
2022-11-06T15:45:11.060Z,19.8
2022-11-06T16:00:12.963Z,26.4
2022-11-06T16:15:14.862Z,28.6
2022-11-06T16:30:20.692Z,37.4
2022-11-06T16:45:25.772Z,41.8
2022-11-06T17:00:27.673Z,50.6
2022-11-06T17:15:29.578Z,52.8
2022-11-06T17:30:31.475Z,50.6
2022-11-06T17:45:33.391Z,55
2022-11-06T18:00:35.269Z,52.8
2022-11-06T18:15:37.242Z,61.6
2022-11-06T18:30:39.149Z,52.8
2022-11-06T18:45:41.103Z,50.6
2022-11-06T19:00:43.047Z,59.4
2022-11-06T19:15:44.933Z,55
2022-11-06T19:30:46.866Z,55
2022-11-06T19:45:48.821Z,52.8
2022-11-06T20:00:50.752Z,44
2022-11-06T20:15:52.805Z,48.4
2022-11-06T20:30:54.808Z,48.4
2022-11-06T20:45:56.699Z,48.4
2022-11-06T21:00:58.641Z,50.6
2022-11-06T21:16:00.558Z,33
2022-11-06T21:31:02.508Z,39.6
2022-11-06T21:46:04.423Z,41.8
2022-11-06T22:01:06.377Z,39.6
2022-11-06T22:16:08.350Z,28.6
2022-11-06T22:31:10.253Z,72.6
2022-11-06T22:46:12.355Z,63.8
2022-11-06T23:01:14.456Z,61.6
2022-11-06T23:16:16.396Z,59.4
2022-11-06T23:31:18.379Z,57.2
2022-11-06T23:46:20.255Z,4.4
